sensor_id;sensor_type;location;lat;lon;timestamp;temperature;humidity
23869;DHT22;12115;47.128;15.422;2023-02-28T00:01:07;1.80;93.80
23869;DHT22;12115;47.128;15.422;2023-02-28T00:03:34;1.80;93.80
23869;DHT22;12115;47.128;15.422;2023-02-28T00:06:06;1.80;93.80
23869;DHT22;12115;47.128;15.422;2023-02-28T00:08:33;1.70;94.20
23869;DHT22;12115;47.128;15.422;2023-02-28T00:11:02;1.60;94.40
23869;DHT22;12115;47.128;15.422;2023-02-28T00:13:30;1.60;95.10
23869;DHT22;12115;47.128;15.422;2023-02-28T00:16:03;1.50;95.80
23869;DHT22;12115;47.128;15.422;2023-02-28T00:18:31;1.50;95.20
23869;DHT22;12115;47.128;15.422;2023-02-28T00:20:58;1.50;95.70
23869;DHT22;12115;47.128;15.422;2023-02-28T00:23:27;1.40;95.30
23869;DHT22;12115;47.128;15.422;2023-02-28T00:25:55;1.50;95.40
23869;DHT22;12115;47.128;15.422;2023-02-28T00:28:22;1.50;95.30
23869;DHT22;12115;47.128;15.422;2023-02-28T00:30:50;1.50;95.20
23869;DHT22;12115;47.128;15.422;2023-02-28T00:33:18;1.50;95.40
23869;DHT22;12115;47.128;15.422;2023-02-28T00:35:46;1.50;95.10
23869;DHT22;12115;47.128;15.422;2023-02-28T00:38:15;1.50;95.20
23869;DHT22;12115;47.128;15.422;2023-02-28T00:40:43;1.50;95.40
23869;DHT22;12115;47.128;15.422;2023-02-28T00:43:10;1.50;95.70
23869;DHT22;12115;47.128;15.422;2023-02-28T00:45:37;1.40;96.40
23869;DHT22;12115;47.128;15.422;2023-02-28T00:48:05;1.50;96.40
23869;DHT22;12115;47.128;15.422;2023-02-28T00:50:33;1.50;96.70
23869;DHT22;12115;47.128;15.422;2023-02-28T00:53:00;1.50;96.80
23869;DHT22;12115;47.128;15.422;2023-02-28T00:55:27;1.40;96.90
23869;DHT22;12115;47.128;15.422;2023-02-28T00:57:55;1.40;96.90
23869;DHT22;12115;47.128;15.422;2023-02-28T01:00:22;1.50;96.80
23869;DHT22;12115;47.128;15.422;2023-02-28T01:02:50;1.40;96.60
23869;DHT22;12115;47.128;15.422;2023-02-28T01:05:17;1.40;96.60
23869;DHT22;12115;47.128;15.422;2023-02-28T01:07:44;1.50;96.30
23869;DHT22;12115;47.128;15.422;2023-02-28T01:10:12;1.50;96.50
23869;DHT22;12115;47.128;15.422;2023-02-28T01:12:40;1.40;96.40
23869;DHT22;12115;47.128;15.422;2023-02-28T01:15:10;1.50;96.50
23869;DHT22;12115;47.128;15.422;2023-02-28T01:17:38;1.40;96.40
23869;DHT22;12115;47.128;15.422;2023-02-28T01:20:06;1.40;97.20
23869;DHT22;12115;47.128;15.422;2023-02-28T01:22:34;1.30;97.20
23869;DHT22;12115;47.128;15.422;2023-02-28T01:25:03;1.40;97.00
23869;DHT22;12115;47.128;15.422;2023-02-28T01:27:31;1.40;97.20
23869;DHT22;12115;47.128;15.422;2023-02-28T01:29:58;1.40;97.20
23869;DHT22;12115;47.128;15.422;2023-02-28T01:32:25;1.40;97.40
23869;DHT22;12115;47.128;15.422;2023-02-28T01:34:53;1.40;97.60
23869;DHT22;12115;47.128;15.422;2023-02-28T01:37:22;1.30;97.30
23869;DHT22;12115;47.128;15.422;2023-02-28T01:39:50;1.30;97.10
23869;DHT22;12115;47.128;15.422;2023-02-28T01:42:19;1.40;97.10
23869;DHT22;12115;47.128;15.422;2023-02-28T01:47:31;1.40;97.20
23869;DHT22;12115;47.128;15.422;2023-02-28T01:50:02;1.40;97.20
23869;DHT22;12115;47.128;15.422;2023-02-28T01:52:32;1.30;98.30
23869;DHT22;12115;47.128;15.422;2023-02-28T01:55:01;1.30;98.70
23869;DHT22;12115;47.128;15.422;2023-02-28T01:57:34;1.30;98.30
23869;DHT22;12115;47.128;15.422;2023-02-28T02:00:09;1.30;98.60
23869;DHT22;12115;47.128;15.422;2023-02-28T02:02:42;1.30;98.60
23869;DHT22;12115;47.128;15.422;2023-02-28T02:05:20;1.30;98.30
23869;DHT22;12115;47.128;15.422;2023-02-28T02:07:54;1.30;98.20
23869;DHT22;12115;47.128;15.422;2023-02-28T02:10:42;1.30;98.40
23869;DHT22;12115;47.128;15.422;2023-02-28T02:13:37;1.30;98.50
23869;DHT22;12115;47.128;15.422;2023-02-28T02:19:11;1.30;98.00
23869;DHT22;12115;47.128;15.422;2023-02-28T02:35:54;1.40;98.10
23869;DHT22;12115;47.128;15.422;2023-02-28T02:41:17;1.40;98.30
23869;DHT22;12115;47.128;15.422;2023-02-28T02:44:33;1.40;98.20
23869;DHT22;12115;47.128;15.422;2023-02-28T02:46:38;1.40;98.10
23869;DHT22;12115;47.128;15.422;2023-02-28T02:49:23;1.50;98.00
23869;DHT22;12115;47.128;15.422;2023-02-28T02:51:52;1.40;98.60
23869;DHT22;12115;47.128;15.422;2023-02-28T02:54:27;1.40;98.50
23869;DHT22;12115;47.128;15.422;2023-02-28T02:56:59;1.40;98.50
23869;DHT22;12115;47.128;15.422;2023-02-28T02:59:28;1.40;98.90
23869;DHT22;12115;47.128;15.422;2023-02-28T03:02:04;1.40;98.80
23869;DHT22;12115;47.128;15.422;2023-02-28T03:04:38;1.40;98.60
23869;DHT22;12115;47.128;15.422;2023-02-28T03:07:07;1.40;98.30
23869;DHT22;12115;47.128;15.422;2023-02-28T03:09:34;1.40;98.10
23869;DHT22;12115;47.128;15.422;2023-02-28T03:12:06;1.30;98.60
23869;DHT22;12115;47.128;15.422;2023-02-28T03:14:56;1.30;98.30
23869;DHT22;12115;47.128;15.422;2023-02-28T03:20:07;1.30;98.20
23869;DHT22;12115;47.128;15.422;2023-02-28T03:23:07;1.30;98.00
23869;DHT22;12115;47.128;15.422;2023-02-28T03:26:02;1.40;98.00
23869;DHT22;12115;47.128;15.422;2023-02-28T03:28:40;1.30;97.90
23869;DHT22;12115;47.128;15.422;2023-02-28T03:31:27;1.30;97.90
23869;DHT22;12115;47.128;15.422;2023-02-28T03:34:24;1.30;98.00
23869;DHT22;12115;47.128;15.422;2023-02-28T03:37:01;1.30;98.40
23869;DHT22;12115;47.128;15.422;2023-02-28T03:42:27;1.40;98.50
23869;DHT22;12115;47.128;15.422;2023-02-28T03:45:01;1.40;98.60
23869;DHT22;12115;47.128;15.422;2023-02-28T03:48:01;1.40;98.50
23869;DHT22;12115;47.128;15.422;2023-02-28T03:50:35;1.40;98.50
23869;DHT22;12115;47.128;15.422;2023-02-28T03:56:13;1.40;98.70
23869;DHT22;12115;47.128;15.422;2023-02-28T03:58:44;1.40;99.50
23869;DHT22;12115;47.128;15.422;2023-02-28T04:01:24;1.40;99.10
23869;DHT22;12115;47.128;15.422;2023-02-28T04:03:53;1.40;98.80
23869;DHT22;12115;47.128;15.422;2023-02-28T04:06:22;1.40;98.60
23869;DHT22;12115;47.128;15.422;2023-02-28T04:08:50;1.40;98.50
23869;DHT22;12115;47.128;15.422;2023-02-28T04:11:45;1.50;98.50
23869;DHT22;12115;47.128;15.422;2023-02-28T04:14:13;1.40;98.30
23869;DHT22;12115;47.128;15.422;2023-02-28T04:16:42;1.40;98.60
23869;DHT22;12115;47.128;15.422;2023-02-28T04:19:11;1.50;98.80
23869;DHT22;12115;47.128;15.422;2023-02-28T04:21:41;1.40;99.40
23869;DHT22;12115;47.128;15.422;2023-02-28T04:24:11;1.30;99.90
23869;DHT22;12115;47.128;15.422;2023-02-28T04:26:44;1.30;99.90
23869;DHT22;12115;47.128;15.422;2023-02-28T04:29:13;1.40;99.90
23869;DHT22;12115;47.128;15.422;2023-02-28T04:31:41;1.40;99.90
23869;DHT22;12115;47.128;15.422;2023-02-28T04:34:08;1.40;99.90
23869;DHT22;12115;47.128;15.422;2023-02-28T04:36:35;1.40;99.90
23869;DHT22;12115;47.128;15.422;2023-02-28T04:39:03;1.50;99.50
23869;DHT22;12115;47.128;15.422;2023-02-28T04:41:31;1.40;99.70
23869;DHT22;12115;47.128;15.422;2023-02-28T04:43:59;1.40;99.90
23869;DHT22;12115;47.128;15.422;2023-02-28T04:46:26;1.30;99.90
23869;DHT22;12115;47.128;15.422;2023-02-28T04:48:54;1.30;99.90
23869;DHT22;12115;47.128;15.422;2023-02-28T04:51:22;1.40;99.90
23869;DHT22;12115;47.128;15.422;2023-02-28T04:53:49;1.30;99.90
23869;DHT22;12115;47.128;15.422;2023-02-28T04:56:17;1.40;99.90
23869;DHT22;12115;47.128;15.422;2023-02-28T04:58:45;1.30;99.90
23869;DHT22;12115;47.128;15.422;2023-02-28T05:03:46;1.40;99.90
23869;DHT22;12115;47.128;15.422;2023-02-28T05:06:13;1.40;99.90
23869;DHT22;12115;47.128;15.422;2023-02-28T05:08:41;1.40;99.90
23869;DHT22;12115;47.128;15.422;2023-02-28T05:13:53;1.50;99.90
23869;DHT22;12115;47.128;15.422;2023-02-28T05:16:21;1.50;99.90
23869;DHT22;12115;47.128;15.422;2023-02-28T05:18:49;1.40;99.90
23869;DHT22;12115;47.128;15.422;2023-02-28T05:21:23;1.40;99.90
23869;DHT22;12115;47.128;15.422;2023-02-28T05:23:51;1.40;99.90
23869;DHT22;12115;47.128;15.422;2023-02-28T05:26:19;1.30;99.90
23869;DHT22;12115;47.128;15.422;2023-02-28T05:28:47;1.40;99.90
23869;DHT22;12115;47.128;15.422;2023-02-28T05:31:14;1.40;99.90
23869;DHT22;12115;47.128;15.422;2023-02-28T05:33:42;1.40;99.90
23869;DHT22;12115;47.128;15.422;2023-02-28T05:36:10;1.50;99.90
23869;DHT22;12115;47.128;15.422;2023-02-28T05:38:37;1.50;99.90
23869;DHT22;12115;47.128;15.422;2023-02-28T05:41:08;1.50;99.90
23869;DHT22;12115;47.128;15.422;2023-02-28T05:43:37;1.50;99.90
23869;DHT22;12115;47.128;15.422;2023-02-28T05:46:09;1.50;99.90
23869;DHT22;12115;47.128;15.422;2023-02-28T05:48:38;1.50;99.90
23869;DHT22;12115;47.128;15.422;2023-02-28T05:51:06;1.50;99.90
23869;DHT22;12115;47.128;15.422;2023-02-28T05:53:34;1.40;99.90
23869;DHT22;12115;47.128;15.422;2023-02-28T05:56:03;1.40;99.90
23869;DHT22;12115;47.128;15.422;2023-02-28T05:58:31;1.40;99.90
23869;DHT22;12115;47.128;15.422;2023-02-28T06:00:59;1.40;99.90
23869;DHT22;12115;47.128;15.422;2023-02-28T06:03:27;1.30;99.90
23869;DHT22;12115;47.128;15.422;2023-02-28T06:05:54;1.20;99.90
23869;DHT22;12115;47.128;15.422;2023-02-28T06:08:22;1.10;99.90
23869;DHT22;12115;47.128;15.422;2023-02-28T06:10:49;1.20;99.90
23869;DHT22;12115;47.128;15.422;2023-02-28T06:13:16;1.10;99.90
23869;DHT22;12115;47.128;15.422;2023-02-28T06:15:43;1.10;99.90
23869;DHT22;12115;47.128;15.422;2023-02-28T06:18:11;1.00;99.90
23869;DHT22;12115;47.128;15.422;2023-02-28T06:20:38;1.00;99.90
23869;DHT22;12115;47.128;15.422;2023-02-28T06:23:06;0.90;99.90
23869;DHT22;12115;47.128;15.422;2023-02-28T06:25:33;0.80;99.90
23869;DHT22;12115;47.128;15.422;2023-02-28T06:28:00;0.90;99.90
23869;DHT22;12115;47.128;15.422;2023-02-28T06:30:29;0.90;99.90
23869;DHT22;12115;47.128;15.422;2023-02-28T06:32:58;0.90;99.90
23869;DHT22;12115;47.128;15.422;2023-02-28T06:35:25;0.90;99.90
23869;DHT22;12115;47.128;15.422;2023-02-28T06:37:53;0.90;99.90
23869;DHT22;12115;47.128;15.422;2023-02-28T06:40:21;0.90;99.90
23869;DHT22;12115;47.128;15.422;2023-02-28T06:42:48;0.90;99.90
23869;DHT22;12115;47.128;15.422;2023-02-28T06:45:15;0.90;99.90
23869;DHT22;12115;47.128;15.422;2023-02-28T06:47:43;0.90;99.90
23869;DHT22;12115;47.128;15.422;2023-02-28T06:50:12;0.90;99.90
23869;DHT22;12115;47.128;15.422;2023-02-28T06:52:40;0.90;99.90
23869;DHT22;12115;47.128;15.422;2023-02-28T06:55:08;0.80;99.90
23869;DHT22;12115;47.128;15.422;2023-02-28T06:57:36;0.80;99.90
23869;DHT22;12115;47.128;15.422;2023-02-28T07:00:08;0.80;99.90
23869;DHT22;12115;47.128;15.422;2023-02-28T07:02:36;0.80;99.90
23869;DHT22;12115;47.128;15.422;2023-02-28T07:05:05;0.80;99.90
23869;DHT22;12115;47.128;15.422;2023-02-28T07:07:33;0.80;99.90
23869;DHT22;12115;47.128;15.422;2023-02-28T07:10:01;0.70;99.90
23869;DHT22;12115;47.128;15.422;2023-02-28T07:12:28;0.70;99.90
23869;DHT22;12115;47.128;15.422;2023-02-28T07:14:56;0.70;99.90
23869;DHT22;12115;47.128;15.422;2023-02-28T07:17:23;0.60;99.90
23869;DHT22;12115;47.128;15.422;2023-02-28T07:19:51;0.60;99.90
23869;DHT22;12115;47.128;15.422;2023-02-28T07:22:18;0.70;99.90
23869;DHT22;12115;47.128;15.422;2023-02-28T07:24:45;0.70;99.90
23869;DHT22;12115;47.128;15.422;2023-02-28T07:27:13;0.70;99.90
23869;DHT22;12115;47.128;15.422;2023-02-28T07:29:50;0.70;99.90
23869;DHT22;12115;47.128;15.422;2023-02-28T07:32:18;0.70;99.90
23869;DHT22;12115;47.128;15.422;2023-02-28T07:34:46;0.70;99.90
23869;DHT22;12115;47.128;15.422;2023-02-28T07:37:13;0.70;99.90
23869;DHT22;12115;47.128;15.422;2023-02-28T07:39:41;0.80;99.90
23869;DHT22;12115;47.128;15.422;2023-02-28T07:42:11;0.80;99.90
23869;DHT22;12115;47.128;15.422;2023-02-28T07:44:40;0.80;99.90
23869;DHT22;12115;47.128;15.422;2023-02-28T07:47:10;0.70;99.90
23869;DHT22;12115;47.128;15.422;2023-02-28T07:49:38;0.70;99.90
23869;DHT22;12115;47.128;15.422;2023-02-28T07:52:06;0.70;99.90
23869;DHT22;12115;47.128;15.422;2023-02-28T07:54:34;0.70;99.90
23869;DHT22;12115;47.128;15.422;2023-02-28T07:57:02;0.80;99.90
23869;DHT22;12115;47.128;15.422;2023-02-28T07:59:29;0.80;99.90
23869;DHT22;12115;47.128;15.422;2023-02-28T08:01:58;0.80;99.90
23869;DHT22;12115;47.128;15.422;2023-02-28T08:04:26;0.80;99.90
23869;DHT22;12115;47.128;15.422;2023-02-28T08:06:53;0.80;99.90
23869;DHT22;12115;47.128;15.422;2023-02-28T08:09:21;0.80;99.90
23869;DHT22;12115;47.128;15.422;2023-02-28T08:11:48;0.80;99.90
23869;DHT22;12115;47.128;15.422;2023-02-28T08:14:15;0.80;99.90
23869;DHT22;12115;47.128;15.422;2023-02-28T08:16:43;0.80;99.90
23869;DHT22;12115;47.128;15.422;2023-02-28T08:19:10;0.80;99.90
23869;DHT22;12115;47.128;15.422;2023-02-28T08:21:37;0.90;99.90
23869;DHT22;12115;47.128;15.422;2023-02-28T08:24:05;0.80;99.90
23869;DHT22;12115;47.128;15.422;2023-02-28T08:26:32;0.80;99.90
23869;DHT22;12115;47.128;15.422;2023-02-28T08:29:00;0.90;99.90
23869;DHT22;12115;47.128;15.422;2023-02-28T08:31:27;0.90;99.90
23869;DHT22;12115;47.128;15.422;2023-02-28T08:33:55;0.90;99.90
23869;DHT22;12115;47.128;15.422;2023-02-28T08:36:26;0.90;99.90
23869;DHT22;12115;47.128;15.422;2023-02-28T08:38:56;1.00;99.90
23869;DHT22;12115;47.128;15.422;2023-02-28T08:41:25;1.00;99.90
23869;DHT22;12115;47.128;15.422;2023-02-28T08:43:53;1.00;99.90
23869;DHT22;12115;47.128;15.422;2023-02-28T08:46:20;1.10;99.90
23869;DHT22;12115;47.128;15.422;2023-02-28T08:48:52;1.10;99.90
23869;DHT22;12115;47.128;15.422;2023-02-28T08:51:20;1.20;99.90
23869;DHT22;12115;47.128;15.422;2023-02-28T08:54:00;1.10;99.90
23869;DHT22;12115;47.128;15.422;2023-02-28T08:56:28;1.20;99.90
23869;DHT22;12115;47.128;15.422;2023-02-28T08:58:56;1.20;99.90
23869;DHT22;12115;47.128;15.422;2023-02-28T09:01:26;1.30;99.90
23869;DHT22;12115;47.128;15.422;2023-02-28T09:03:55;1.40;99.90
23869;DHT22;12115;47.128;15.422;2023-02-28T09:06:25;1.40;99.90
23869;DHT22;12115;47.128;15.422;2023-02-28T09:08:56;1.40;99.90
23869;DHT22;12115;47.128;15.422;2023-02-28T09:11:25;1.40;99.90
23869;DHT22;12115;47.128;15.422;2023-02-28T09:13:53;1.40;99.90
23869;DHT22;12115;47.128;15.422;2023-02-28T09:16:22;1.40;99.90
23869;DHT22;12115;47.128;15.422;2023-02-28T09:18:49;1.50;99.90
23869;DHT22;12115;47.128;15.422;2023-02-28T09:21:18;1.50;99.90
23869;DHT22;12115;47.128;15.422;2023-02-28T09:23:47;1.50;99.90
23869;DHT22;12115;47.128;15.422;2023-02-28T09:26:17;1.60;99.90
23869;DHT22;12115;47.128;15.422;2023-02-28T09:28:45;1.60;99.90
23869;DHT22;12115;47.128;15.422;2023-02-28T09:31:18;1.60;99.90
23869;DHT22;12115;47.128;15.422;2023-02-28T09:33:51;1.60;99.90
23869;DHT22;12115;47.128;15.422;2023-02-28T09:36:19;1.70;99.90
23869;DHT22;12115;47.128;15.422;2023-02-28T09:38:50;1.70;99.90
23869;DHT22;12115;47.128;15.422;2023-02-28T09:41:23;1.80;99.90
23869;DHT22;12115;47.128;15.422;2023-02-28T09:43:54;1.80;99.90
23869;DHT22;12115;47.128;15.422;2023-02-28T09:46:38;1.90;99.90
23869;DHT22;12115;47.128;15.422;2023-02-28T09:49:25;1.90;99.90
23869;DHT22;12115;47.128;15.422;2023-02-28T09:51:59;1.90;99.90
23869;DHT22;12115;47.128;15.422;2023-02-28T09:54:31;2.00;99.90
23869;DHT22;12115;47.128;15.422;2023-02-28T09:57:06;2.10;99.90
23869;DHT22;12115;47.128;15.422;2023-02-28T10:11:16;2.50;99.90
23869;DHT22;12115;47.128;15.422;2023-02-28T10:14:00;2.60;99.90
23869;DHT22;12115;47.128;15.422;2023-02-28T10:24:44;2.70;99.90
23869;DHT22;12115;47.128;15.422;2023-02-28T10:27:17;2.80;99.90
23869;DHT22;12115;47.128;15.422;2023-02-28T10:29:48;2.90;99.90
23869;DHT22;12115;47.128;15.422;2023-02-28T10:32:22;3.00;99.90
23869;DHT22;12115;47.128;15.422;2023-02-28T10:34:59;2.90;99.90
23869;DHT22;12115;47.128;15.422;2023-02-28T10:37:27;2.90;99.90
23869;DHT22;12115;47.128;15.422;2023-02-28T10:39:55;3.00;99.90
23869;DHT22;12115;47.128;15.422;2023-02-28T10:42:25;2.90;99.70
23869;DHT22;12115;47.128;15.422;2023-02-28T10:59:11;3.20;99.50
23869;DHT22;12115;47.128;15.422;2023-02-28T11:01:47;3.20;99.30
23869;DHT22;12115;47.128;15.422;2023-02-28T11:07:01;3.20;99.20
23869;DHT22;12115;47.128;15.422;2023-02-28T11:12:04;3.20;98.90
23869;DHT22;12115;47.128;15.422;2023-02-28T11:14:38;3.10;99.10
23869;DHT22;12115;47.128;15.422;2023-02-28T11:17:24;3.30;99.00
23869;DHT22;12115;47.128;15.422;2023-02-28T11:20:06;3.40;98.80
23869;DHT22;12115;47.128;15.422;2023-02-28T11:22:38;3.50;98.60
23869;DHT22;12115;47.128;15.422;2023-02-28T11:25:12;3.50;98.20
23869;DHT22;12115;47.128;15.422;2023-02-28T11:27:49;3.50;98.40
23869;DHT22;12115;47.128;15.422;2023-02-28T11:30:28;3.60;98.30
23869;DHT22;12115;47.128;15.422;2023-02-28T11:32:56;3.70;98.50
23869;DHT22;12115;47.128;15.422;2023-02-28T11:35:33;3.80;98.10
23869;DHT22;12115;47.128;15.422;2023-02-28T11:38:02;3.90;98.10
23869;DHT22;12115;47.128;15.422;2023-02-28T11:51:32;4.10;97.80
23869;DHT22;12115;47.128;15.422;2023-02-28T11:57:26;4.10;97.80
23869;DHT22;12115;47.128;15.422;2023-02-28T12:03:09;4.20;97.60
23869;DHT22;12115;47.128;15.422;2023-02-28T12:05:53;4.40;97.30
23869;DHT22;12115;47.128;15.422;2023-02-28T12:17:46;4.70;97.00
23869;DHT22;12115;47.128;15.422;2023-02-28T12:20:26;4.60;96.70
23869;DHT22;12115;47.128;15.422;2023-02-28T12:23:18;4.60;96.40
23869;DHT22;12115;47.128;15.422;2023-02-28T12:26:18;4.80;96.50
23869;DHT22;12115;47.128;15.422;2023-02-28T12:28:54;4.90;96.60
23869;DHT22;12115;47.128;15.422;2023-02-28T12:31:36;4.90;96.30
23869;DHT22;12115;47.128;15.422;2023-02-28T12:34:12;4.80;96.40
23869;DHT22;12115;47.128;15.422;2023-02-28T12:36:42;4.80;96.00
23869;DHT22;12115;47.128;15.422;2023-02-28T12:39:25;4.70;96.40
23869;DHT22;12115;47.128;15.422;2023-02-28T12:41:59;4.90;96.60
23869;DHT22;12115;47.128;15.422;2023-02-28T12:44:40;4.80;96.00
23869;DHT22;12115;47.128;15.422;2023-02-28T12:47:16;4.80;96.50
23869;DHT22;12115;47.128;15.422;2023-02-28T12:50:05;4.90;96.10
23869;DHT22;12115;47.128;15.422;2023-02-28T12:52:48;4.90;96.30
23869;DHT22;12115;47.128;15.422;2023-02-28T12:55:37;4.90;96.20
23869;DHT22;12115;47.128;15.422;2023-02-28T12:58:17;4.90;96.30
23869;DHT22;12115;47.128;15.422;2023-02-28T13:01:15;4.70;96.50
23869;DHT22;12115;47.128;15.422;2023-02-28T13:09:58;5.10;96.40
23869;DHT22;12115;47.128;15.422;2023-02-28T13:12:26;5.20;95.90
23869;DHT22;12115;47.128;15.422;2023-02-28T13:15:25;4.90;96.10
23869;DHT22;12115;47.128;15.422;2023-02-28T13:18:01;5.00;96.10
23869;DHT22;12115;47.128;15.422;2023-02-28T13:20:36;5.10;95.90
23869;DHT22;12115;47.128;15.422;2023-02-28T13:23:56;5.10;96.10
23869;DHT22;12115;47.128;15.422;2023-02-28T13:39:51;5.10;96.60
23869;DHT22;12115;47.128;15.422;2023-02-28T13:47:39;5.30;96.30
23869;DHT22;12115;47.128;15.422;2023-02-28T13:50:43;5.40;96.20
23869;DHT22;12115;47.128;15.422;2023-02-28T13:59:04;5.20;95.70
23869;DHT22;12115;47.128;15.422;2023-02-28T14:07:23;5.30;96.30
23869;DHT22;12115;47.128;15.422;2023-02-28T14:09:59;5.30;96.10
23869;DHT22;12115;47.128;15.422;2023-02-28T14:15:49;5.40;95.90
23869;DHT22;12115;47.128;15.422;2023-02-28T14:18:35;5.30;96.30
23869;DHT22;12115;47.128;15.422;2023-02-28T14:21:23;5.40;96.40
23869;DHT22;12115;47.128;15.422;2023-02-28T14:24:00;5.50;96.10
23869;DHT22;12115;47.128;15.422;2023-02-28T14:32:29;5.40;96.10
23869;DHT22;12115;47.128;15.422;2023-02-28T14:38:11;5.20;96.30
23869;DHT22;12115;47.128;15.422;2023-02-28T14:40:40;5.20;96.20
23869;DHT22;12115;47.128;15.422;2023-02-28T14:43:21;5.40;96.20
23869;DHT22;12115;47.128;15.422;2023-02-28T14:45:56;5.40;95.90
23869;DHT22;12115;47.128;15.422;2023-02-28T14:48:24;5.30;95.80
23869;DHT22;12115;47.128;15.422;2023-02-28T14:50:58;5.30;96.20
23869;DHT22;12115;47.128;15.422;2023-02-28T14:53:30;5.30;95.80
23869;DHT22;12115;47.128;15.422;2023-02-28T14:55:58;5.30;96.10
23869;DHT22;12115;47.128;15.422;2023-02-28T14:58:29;5.30;95.90
23869;DHT22;12115;47.128;15.422;2023-02-28T15:01:00;5.20;95.90
23869;DHT22;12115;47.128;15.422;2023-02-28T15:06:03;5.20;96.20
23869;DHT22;12115;47.128;15.422;2023-02-28T15:08:31;5.30;96.00
23869;DHT22;12115;47.128;15.422;2023-02-28T15:11:14;5.20;95.90
23869;DHT22;12115;47.128;15.422;2023-02-28T15:13:48;5.20;96.00
23869;DHT22;12115;47.128;15.422;2023-02-28T15:16:26;5.20;96.10
23869;DHT22;12115;47.128;15.422;2023-02-28T15:18:59;5.20;96.10
23869;DHT22;12115;47.128;15.422;2023-02-28T15:21:27;5.30;96.00
23869;DHT22;12115;47.128;15.422;2023-02-28T15:24:04;5.40;96.00
23869;DHT22;12115;47.128;15.422;2023-02-28T15:26:37;5.40;95.90
23869;DHT22;12115;47.128;15.422;2023-02-28T15:29:08;5.50;95.90
23869;DHT22;12115;47.128;15.422;2023-02-28T15:31:49;5.50;95.80
23869;DHT22;12115;47.128;15.422;2023-02-28T15:39:56;5.30;95.90
23869;DHT22;12115;47.128;15.422;2023-02-28T15:42:29;5.30;95.90
23869;DHT22;12115;47.128;15.422;2023-02-28T15:44:57;5.30;95.80
23869;DHT22;12115;47.128;15.422;2023-02-28T15:47:27;5.30;95.90
23869;DHT22;12115;47.128;15.422;2023-02-28T15:50:01;5.30;95.80
23869;DHT22;12115;47.128;15.422;2023-02-28T15:52:43;5.30;95.80
23869;DHT22;12115;47.128;15.422;2023-02-28T15:55:23;5.30;95.90
23869;DHT22;12115;47.128;15.422;2023-02-28T15:57:54;5.30;95.90
23869;DHT22;12115;47.128;15.422;2023-02-28T16:00:24;5.20;95.90
23869;DHT22;12115;47.128;15.422;2023-02-28T16:02:51;5.20;96.10
23869;DHT22;12115;47.128;15.422;2023-02-28T16:05:24;5.20;96.10
23869;DHT22;12115;47.128;15.422;2023-02-28T16:08:10;5.30;96.10
23869;DHT22;12115;47.128;15.422;2023-02-28T16:10:38;5.30;95.90
23869;DHT22;12115;47.128;15.422;2023-02-28T16:13:05;5.20;96.10
23869;DHT22;12115;47.128;15.422;2023-02-28T16:15:38;5.20;96.10
23869;DHT22;12115;47.128;15.422;2023-02-28T16:18:11;5.20;96.40
23869;DHT22;12115;47.128;15.422;2023-02-28T16:20:39;5.20;96.50
23869;DHT22;12115;47.128;15.422;2023-02-28T16:23:07;5.20;96.40
23869;DHT22;12115;47.128;15.422;2023-02-28T16:25:40;5.20;96.40
23869;DHT22;12115;47.128;15.422;2023-02-28T16:28:30;5.30;96.30
23869;DHT22;12115;47.128;15.422;2023-02-28T16:31:06;5.30;96.30
23869;DHT22;12115;47.128;15.422;2023-02-28T16:33:34;5.20;96.80
23869;DHT22;12115;47.128;15.422;2023-02-28T16:36:02;5.20;96.50
23869;DHT22;12115;47.128;15.422;2023-02-28T16:38:30;5.20;96.40
23869;DHT22;12115;47.128;15.422;2023-02-28T16:40:59;5.20;97.00
23869;DHT22;12115;47.128;15.422;2023-02-28T16:43:27;5.20;96.80
23869;DHT22;12115;47.128;15.422;2023-02-28T16:45:55;5.20;96.90
23869;DHT22;12115;47.128;15.422;2023-02-28T16:48:27;5.10;96.80
23869;DHT22;12115;47.128;15.422;2023-02-28T16:50:55;5.10;97.10
23869;DHT22;12115;47.128;15.422;2023-02-28T16:53:22;5.00;97.30
23869;DHT22;12115;47.128;15.422;2023-02-28T16:55:50;5.00;97.20
23869;DHT22;12115;47.128;15.422;2023-02-28T16:58:18;5.00;97.20
23869;DHT22;12115;47.128;15.422;2023-02-28T17:00:48;5.00;97.30
23869;DHT22;12115;47.128;15.422;2023-02-28T17:03:28;5.00;97.80
23869;DHT22;12115;47.128;15.422;2023-02-28T17:06:00;5.00;98.00
23869;DHT22;12115;47.128;15.422;2023-02-28T17:08:27;5.00;97.90
23869;DHT22;12115;47.128;15.422;2023-02-28T17:10:56;5.00;97.80
23869;DHT22;12115;47.128;15.422;2023-02-28T17:13:25;4.90;98.10
23869;DHT22;12115;47.128;15.422;2023-02-28T17:15:54;4.80;98.90
23869;DHT22;12115;47.128;15.422;2023-02-28T17:18:22;4.70;99.10
23869;DHT22;12115;47.128;15.422;2023-02-28T17:20:52;4.80;98.80
23869;DHT22;12115;47.128;15.422;2023-02-28T17:23:20;4.80;98.70
23869;DHT22;12115;47.128;15.422;2023-02-28T17:25:48;4.80;98.50
23869;DHT22;12115;47.128;15.422;2023-02-28T17:28:24;4.80;98.20
23869;DHT22;12115;47.128;15.422;2023-02-28T17:30:52;4.80;98.00
23869;DHT22;12115;47.128;15.422;2023-02-28T17:33:20;4.80;98.10
23869;DHT22;12115;47.128;15.422;2023-02-28T17:35:48;4.80;97.80
23869;DHT22;12115;47.128;15.422;2023-02-28T17:38:18;4.70;97.70
23869;DHT22;12115;47.128;15.422;2023-02-28T17:40:46;4.60;97.70
23869;DHT22;12115;47.128;15.422;2023-02-28T17:43:14;4.70;97.60
23869;DHT22;12115;47.128;15.422;2023-02-28T17:45:42;4.70;97.80
23869;DHT22;12115;47.128;15.422;2023-02-28T17:48:11;4.70;97.60
23869;DHT22;12115;47.128;15.422;2023-02-28T17:50:40;4.70;97.70
23869;DHT22;12115;47.128;15.422;2023-02-28T17:53:08;4.70;97.70
23869;DHT22;12115;47.128;15.422;2023-02-28T17:55:35;4.60;97.70
23869;DHT22;12115;47.128;15.422;2023-02-28T17:58:03;4.70;97.80
23869;DHT22;12115;47.128;15.422;2023-02-28T18:00:32;4.60;97.90
23869;DHT22;12115;47.128;15.422;2023-02-28T18:03:00;4.60;98.00
23869;DHT22;12115;47.128;15.422;2023-02-28T18:05:28;4.60;98.10
23869;DHT22;12115;47.128;15.422;2023-02-28T18:07:57;4.60;98.00
23869;DHT22;12115;47.128;15.422;2023-02-28T18:10:26;4.60;98.20
23869;DHT22;12115;47.128;15.422;2023-02-28T18:12:54;4.50;98.20
23869;DHT22;12115;47.128;15.422;2023-02-28T18:15:22;4.50;98.20
23869;DHT22;12115;47.128;15.422;2023-02-28T18:17:53;4.50;98.40
23869;DHT22;12115;47.128;15.422;2023-02-28T18:20:20;4.50;98.40
23869;DHT22;12115;47.128;15.422;2023-02-28T18:22:48;4.50;98.30
23869;DHT22;12115;47.128;15.422;2023-02-28T18:25:30;4.50;98.40
23869;DHT22;12115;47.128;15.422;2023-02-28T18:27:58;4.50;98.40
23869;DHT22;12115;47.128;15.422;2023-02-28T18:30:36;4.40;98.40
23869;DHT22;12115;47.128;15.422;2023-02-28T18:33:05;4.50;98.40
23869;DHT22;12115;47.128;15.422;2023-02-28T18:35:33;4.40;98.40
23869;DHT22;12115;47.128;15.422;2023-02-28T18:38:16;4.40;98.50